Aérodrome :
LOGIN :

S'inscrire | Disclaimer

   EN    FR    IT 

 










Légende :    VFR   VFR Marginal   IFR   IFR Intensif   IFR Très Intensif
Visi : 
Plafond : 
>= 8 km
>= 3000ft
5 à 8 km
1000 à 3000 ft
1500m à 5 km
500 à 1000 ft
800 à 1500m
200 à 500 ft
< 800m
< 200 ft
Symboles :   Orages  Brouillard  Fortes neiges  Fortes précipitations  Vent > 20 kt
SIGMETs :   Divers  Orages  Givrage  Turbulence  Onde Orograph.  Cendres Volcan.







- Altitude de l'aérodrome : 17 ft
- Code IATA : MPL
- Voir les cartes d'approche


LFMT - Montpellier Méditerranée

DERNIER METAR :
  • 211630Z AUTO 29015KT CAVOK 18/10 Q1017 BECMG 30020G30KT

METARs EXPIRÉS :
  • 211600Z AUTO 30017KT CAVOK 18/10 Q1017 NOSIG
  • 211530Z AUTO 31018KT CAVOK 19/10 Q1016 NOSIG
  • 211500Z AUTO 31018KT CAVOK 19/10 Q1016 NOSIG
  • 211430Z AUTO 31022KT CAVOK 19/09 Q1016 TEMPO 32010KT
  • 211400Z AUTO 31022KT 9999 FEW046 19/09 Q1016 BECMG 30020G30KT

TAF TAF LFMT
Valide du 21 à 15h jusqu'au 22 à 15h UTC


211400Z 2115/2215 30020G30KT CAVOK
TEMPO 2115/2118 32010KT
TEMPO 2115/2215 9999 SCT040
ATIS : +33 4 67 13 11 70
Pas de NOTAMs connus pour ce terrain.
4 SIGMETs publiés pour la FIR Marseille (LFMM) :
 
Annulation du SIGMET 12
LFMM SIGMET 15 VALID 211600/211800 LFPW
LFMM MARSEILLE FIR/UIR CNL SIGMET 12 211400/211800=
Turbulence forte
LFMM SIGMET 14 VALID 211600/212000 LFPW
LFMM MARSEILLE FIR/UIR SEV TURB FCST WI N4215 E00300 - N4215 E00230 - N4515 E00245 - N4545 E00300 - N4545 E00430 - N4215 E00300 SFC/FL150 STNR NC=
Turbulence forte
LFMM SIGMET 13 VALID 211500/211900 LFPW
LFMM MARSEILLE FIR/UIR SEV TURB FCST WI N4500 E00700 - N4400 E00700 - N4330 E00700 - N4230 E00745 - N4230 E00515 - N4515 E00515 - N4500 E00700 SFC/FL150 STNR NC=
SIGMET 12  ANNULÉ :
Turbulence forte
LFMM SIGMET 12 VALID 211400/211800 LFPW
LFMM MARSEILLE FIR/UIR SEV TURB FCST WI N4215 E00345 - N4215 E00230 - N4430 E00245 - N4445 E00300 - N4445 E00430 - N4330 E00315 - N4330 E00345 - N4215 E00345 SFC/FL150 STNR INTSF=



MET'MAP, la Météo Aéronautique d'un coup d'oeil ! - Copyright ORBIFLY Décembre 2007 - Disclaimer

ORBIFLY MET'MAP TEAM :

Programmation & Développement : Alexandra Zaïnal
Conception & Développement : Baudouin d'Aumeries
Co-Programmation & Développement : Marc-Olivier Méhu
Soutien technique & logistique : Manuel Goepfert

Contact : metmap@orbifly.com




SOURCES & CREDITS :

   NOAA